Time;durP1;ratioP1;P1;durP2;ratioP2;P2;SDS_P1;SDS_P2;PMS_P1;PMS_P2;Temp;Humidity;BMP_temperature;BMP_pressure;BME280_temperature;BME280_humidity;BME280_pressure;Samples;Min_cycle;Max_cycle;Signal;HPM_P1;HPM_P2
2023/09/19 00:01:45;;;;;;;4.00;1.80;;;19.70;99.90;;;;;;5015414;28;20582;-72
2023/09/19 00:04:14;;;;;;;5.73;1.97;;;19.60;99.90;;;;;;5018681;28;20522;-72
2023/09/19 00:06:41;;;;;;;4.23;2.00;;;19.60;99.90;;;;;;5020863;28;21596;-72
2023/09/19 00:09:10;;;;;;;2.60;1.80;;;19.60;99.90;;;;;;5027457;28;20419;-72
2023/09/19 00:11:37;;;;;;;6.00;1.77;;;19.50;99.90;;;;;;5033108;28;20439;-71
2023/09/19 00:14:03;;;;;;;2.33;1.80;;;19.40;99.90;;;;;;5013745;28;20522;-72
2023/09/19 00:16:28;;;;;;;2.67;1.80;;;19.40;99.90;;;;;;5020989;28;20576;-72
2023/09/19 00:18:55;;;;;;;4.90;2.33;;;19.50;99.90;;;;;;5019319;28;20212;-71
2023/09/19 00:21:20;;;;;;;3.90;1.70;;;19.50;99.90;;;;;;5027534;28;20173;-71
2023/09/19 00:23:46;;;;;;;8.73;2.10;;;19.50;99.90;;;;;;4999411;28;20794;-71
2023/09/19 00:26:12;;;;;;;2.33;1.53;;;19.50;99.90;;;;;;5017054;28;20184;-72
2023/09/19 00:28:39;;;;;;;3.53;1.70;;;19.40;99.90;;;;;;5016483;28;21988;-71
2023/09/19 00:31:08;;;;;;;2.90;1.70;;;19.40;99.90;;;;;;5012391;28;20522;-71
2023/09/19 00:33:34;;;;;;;2.40;1.70;;;19.50;99.90;;;;;;5015371;28;23270;-71
2023/09/19 00:36:01;;;;;;;3.50;1.73;;;19.50;99.90;;;;;;5019425;28;20431;-71
2023/09/19 00:38:27;;;;;;;3.07;1.73;;;19.50;99.90;;;;;;5018082;28;20243;-71
2023/09/19 00:40:54;;;;;;;3.20;2.00;;;19.40;99.90;;;;;;5016080;28;20431;-71
2023/09/19 00:43:21;;;;;;;3.73;1.70;;;19.40;99.90;;;;;;5012137;28;20627;-73
2023/09/19 00:45:51;;;;;;;3.73;1.50;;;19.40;99.90;;;;;;5017763;28;20439;-74
2023/09/19 00:48:18;;;;;;;3.10;1.70;;;19.50;99.90;;;;;;5018452;28;20423;-75
2023/09/19 00:50:46;;;;;;;3.27;1.87;;;19.50;99.90;;;;;;5017311;28;20426;-73
2023/09/19 00:53:15;;;;;;;2.33;1.70;;;19.40;99.90;;;;;;5013030;28;20451;-73
2023/09/19 00:55:42;;;;;;;3.00;1.60;;;19.40;99.90;;;;;;4993955;28;20438;-73
2023/09/19 00:58:10;;;;;;;6.03;1.87;;;19.40;99.90;;;;;;5001299;28;20464;-74
2023/09/19 01:00:36;;;;;;;2.83;1.70;;;19.50;99.90;;;;;;5021277;28;20527;-73
2023/09/19 01:03:02;;;;;;;3.37;1.80;;;19.50;99.90;;;;;;5022382;28;20440;-74
2023/09/19 01:05:29;;;;;;;5.40;2.30;;;19.50;99.90;;;;;;5036175;28;20436;-74
2023/09/19 01:07:55;;;;;;;3.07;1.60;;;19.50;99.90;;;;;;5013674;28;20454;-74
2023/09/19 01:10:21;;;;;;;4.03;1.60;;;19.40;99.90;;;;;;5033831;28;20439;-74
2023/09/19 01:13:21;;;;;;;2.70;1.60;;;19.50;99.90;;;;;;5047583;28;20216;-74
2023/09/19 01:16:06;;;;;;;2.73;1.53;;;19.60;99.90;;;;;;5025066;28;20430;-73
2023/09/19 01:18:45;;;;;;;6.70;2.30;;;19.60;99.90;;;;;;5036070;28;20467;-74
2023/09/19 01:21:18;;;;;;;4.80;1.70;;;19.60;99.90;;;;;;5017515;28;20422;-74
2023/09/19 01:24:19;;;;;;;2.47;1.60;;;19.60;99.90;;;;;;5018062;28;20431;-73
2023/09/19 01:27:10;;;;;;;3.40;2.27;;;19.70;99.90;;;;;;4949752;28;21212;-74
2023/09/19 01:29:44;;;;;;;1.93;1.40;;;19.70;99.90;;;;;;5014560;28;20593;-74
2023/09/19 01:32:14;;;;;;;2.30;1.60;;;19.60;99.90;;;;;;5010584;28;20474;-73
2023/09/19 01:34:45;;;;;;;2.43;1.80;;;19.60;99.90;;;;;;5024782;28;20613;-73
2023/09/19 01:37:11;;;;;;;2.40;1.50;;;19.70;99.90;;;;;;5015196;28;20430;-73
2023/09/19 01:39:37;;;;;;;3.37;1.90;;;19.70;99.90;;;;;;5013783;28;20482;-73
2023/09/19 01:42:24;;;;;;;2.60;1.70;;;19.70;99.90;;;;;;5013149;28;20342;-74
2023/09/19 01:45:09;;;;;;;3.20;1.87;;;19.70;99.90;;;;;;5012566;28;20468;-73
2023/09/19 01:47:48;;;;;;;2.50;1.50;;;19.50;99.90;;;;;;5014357;28;20454;-74
2023/09/19 01:50:31;;;;;;;2.40;1.80;;;19.50;99.90;;;;;;5014464;28;20482;-74
2023/09/19 01:53:05;;;;;;;4.43;1.60;;;19.50;99.90;;;;;;5014496;28;20487;-73
2023/09/19 01:55:42;;;;;;;2.70;1.60;;;19.50;99.90;;;;;;5008021;28;20424;-73
2023/09/19 01:58:25;;;;;;;2.80;1.93;;;19.60;99.90;;;;;;5014330;28;20464;-73
2023/09/19 02:00:51;;;;;;;2.60;1.80;;;19.60;99.90;;;;;;5012299;28;20427;-73
2023/09/19 02:03:20;;;;;;;2.80;1.80;;;19.60;99.90;;;;;;5027518;28;21310;-74
2023/09/19 02:05:53;;;;;;;2.47;1.50;;;19.70;99.90;;;;;;5016493;28;20419;-74
2023/09/19 02:08:20;;;;;;;3.83;1.90;;;19.60;99.90;;;;;;5016386;28;20830;-73
2023/09/19 02:10:49;;;;;;;3.17;1.67;;;19.60;99.90;;;;;;4996116;28;20436;-73
2023/09/19 02:13:19;;;;;;;3.53;1.60;;;19.70;99.90;;;;;;5012955;28;20850;-73
2023/09/19 02:15:45;;;;;;;2.60;1.70;;;19.60;99.90;;;;;;5012780;28;20438;-72
2023/09/19 02:18:17;;;;;;;3.27;1.70;;;19.60;99.90;;;;;;4998065;28;21756;-72
2023/09/19 02:20:42;;;;;;;2.27;1.50;;;19.50;99.90;;;;;;5018196;28;20434;-72
2023/09/19 02:23:09;;;;;;;3.53;1.70;;;19.50;99.90;;;;;;5018163;28;20446;-72
2023/09/19 02:25:35;;;;;;;3.20;2.00;;;19.50;99.90;;;;;;5023385;28;20666;-73
2023/09/19 02:28:03;;;;;;;3.80;1.70;;;19.70;99.90;;;;;;5000214;28;20441;-73
2023/09/19 02:30:30;;;;;;;2.83;1.60;;;19.70;99.90;;;;;;5031731;28;20477;-73
2023/09/19 02:32:56;;;;;;;2.57;1.60;;;19.70;99.90;;;;;;5023499;28;20474;-73
2023/09/19 02:35:22;;;;;;;5.50;1.90;;;19.60;99.90;;;;;;5025749;28;20547;-73
2023/09/19 02:37:48;;;;;;;5.13;1.80;;;19.60;99.90;;;;;;5002141;28;20545;-73
2023/09/19 02:40:25;;;;;;;2.93;1.60;;;19.60;99.90;;;;;;5021224;28;20197;-73
2023/09/19 02:42:54;;;;;;;2.20;1.70;;;19.70;99.90;;;;;;5027807;28;20442;-73
2023/09/19 02:45:20;;;;;;;3.40;1.83;;;19.70;99.90;;;;;;5002558;28;20462;-74
2023/09/19 02:47:46;;;;;;;2.60;1.70;;;19.60;99.90;;;;;;5022806;28;20522;-72
2023/09/19 02:50:13;;;;;;;5.50;2.23;;;19.60;99.90;;;;;;5002148;28;20442;-74
2023/09/19 02:52:43;;;;;;;5.07;2.40;;;19.50;99.90;;;;;;5000189;28;20463;-74
2023/09/19 02:55:10;;;;;;;2.27;1.60;;;19.60;99.90;;;;;;5017802;28;20536;-74
2023/09/19 02:57:40;;;;;;;3.00;1.80;;;19.50;99.90;;;;;;5022977;28;20424;-73
2023/09/19 03:00:07;;;;;;;2.60;1.77;;;19.50;99.90;;;;;;5030165;28;20467;-73
2023/09/19 03:02:34;;;;;;;3.20;1.60;;;19.50;99.90;;;;;;5018490;28;20442;-73
2023/09/19 03:05:00;;;;;;;3.00;2.00;;;19.50;99.90;;;;;;5002851;28;20455;-73
2023/09/19 03:07:26;;;;;;;3.67;1.93;;;19.50;99.90;;;;;;5024409;28;20431;-73
2023/09/19 03:09:52;;;;;;;3.63;2.27;;;19.40;99.90;;;;;;5019285;28;20707;-73
2023/09/19 03:12:18;;;;;;;4.27;2.30;;;19.50;99.90;;;;;;5023075;28;20205;-73
2023/09/19 03:14:44;;;;;;;4.07;2.33;;;19.50;99.90;;;;;;5014942;28;20427;-72
2023/09/19 03:17:09;;;;;;;5.33;2.10;;;19.40;99.90;;;;;;5016022;28;20450;-73
2023/09/19 03:19:37;;;;;;;3.67;2.20;;;19.40;99.90;;;;;;5024397;28;20228;-72
2023/09/19 03:22:03;;;;;;;3.60;2.23;;;19.40;99.90;;;;;;5021587;28;20196;-72
2023/09/19 03:24:29;;;;;;;9.27;2.40;;;19.40;99.90;;;;;;5031299;28;21798;-72
2023/09/19 03:26:55;;;;;;;2.70;2.00;;;19.30;99.90;;;;;;5021559;28;20215;-73
2023/09/19 03:29:20;;;;;;;3.47;2.07;;;19.30;99.90;;;;;;5016542;28;20487;-73
2023/09/19 03:31:46;;;;;;;7.40;2.20;;;19.20;99.90;;;;;;5045099;28;20214;-74
2023/09/19 03:34:12;;;;;;;3.93;2.00;;;19.30;99.90;;;;;;5021230;28;20688;-73
2023/09/19 03:36:37;;;;;;;2.77;2.17;;;19.40;99.90;;;;;;5027589;28;20596;-73
2023/09/19 03:39:04;;;;;;;4.17;2.30;;;19.40;99.90;;;;;;5000711;28;20790;-73
2023/09/19 03:41:31;;;;;;;3.60;1.90;;;19.30;99.90;;;;;;5008871;28;21542;-73
2023/09/19 03:43:57;;;;;;;6.80;2.33;;;19.30;99.90;;;;;;4997155;28;20438;-72
2023/09/19 03:46:22;;;;;;;8.53;2.60;;;19.30;99.90;;;;;;5008067;28;20489;-72
2023/09/19 03:48:48;;;;;;;4.60;2.50;;;19.30;99.90;;;;;;5024259;28;20275;-72
2023/09/19 03:51:13;;;;;;;2.70;1.90;;;19.20;99.90;;;;;;5020691;28;20180;-72
2023/09/19 03:53:39;;;;;;;3.60;2.57;;;19.30;99.90;;;;;;5015266;28;20600;-72
2023/09/19 03:56:05;;;;;;;4.00;2.67;;;19.30;99.90;;;;;;5019665;28;20430;-72
2023/09/19 03:58:30;;;;;;;3.57;2.20;;;19.20;99.90;;;;;;5021941;28;20215;-72
2023/09/19 04:00:57;;;;;;;3.70;1.97;;;19.20;99.90;;;;;;5011445;28;20209;-71
2023/09/19 04:03:24;;;;;;;2.80;2.17;;;19.20;99.90;;;;;;5013543;28;20258;-74
2023/09/19 04:05:50;;;;;;;4.40;2.20;;;19.30;99.90;;;;;;5017894;28;20461;-75
2023/09/19 04:08:16;;;;;;;3.40;1.93;;;19.30;99.90;;;;;;5006108;28;20430;-75
2023/09/19 04:10:43;;;;;;;5.17;2.20;;;19.30;99.90;;;;;;5017972;28;20493;-75
2023/09/19 04:13:09;;;;;;;4.90;2.60;;;19.30;99.90;;;;;;5007930;28;20200;-75
2023/09/19 04:15:34;;;;;;;3.70;2.13;;;19.30;99.90;;;;;;5016911;28;20516;-74
2023/09/19 04:18:00;;;;;;;5.00;2.10;;;19.30;99.90;;;;;;5017887;28;20292;-75
2023/09/19 04:20:25;;;;;;;4.43;2.13;;;19.30;99.90;;;;;;5018409;28;20181;-75
2023/09/19 04:22:51;;;;;;;6.23;1.93;;;19.30;99.90;;;;;;4995414;28;20702;-75
2023/09/19 04:25:18;;;;;;;4.30;2.60;;;19.20;99.90;;;;;;5021375;28;20180;-75
2023/09/19 04:27:44;;;;;;;3.57;2.53;;;19.20;99.90;;;;;;5019826;28;20422;-75
2023/09/19 04:30:11;;;;;;;4.70;2.23;;;19.20;99.90;;;;;;5028329;28;20461;-75
2023/09/19 04:32:40;;;;;;;2.87;2.30;;;19.20;99.90;;;;;;5018187;28;20242;-76
2023/09/19 04:35:10;;;;;;;10.37;4.17;;;19.30;99.90;;;;;;5037108;28;20434;-75
2023/09/19 04:37:40;;;;;;;7.23;3.57;;;19.20;99.90;;;;;;5019719;28;20430;-74
2023/09/19 04:40:14;;;;;;;5.97;2.30;;;19.20;99.90;;;;;;5020157;28;20510;-74
2023/09/19 04:42:40;;;;;;;3.40;2.33;;;19.20;99.90;;;;;;5021955;28;20445;-73
2023/09/19 04:45:07;;;;;;;5.63;2.23;;;19.20;99.90;;;;;;5011650;28;20434;-73
2023/09/19 04:47:33;;;;;;;6.37;2.80;;;19.20;99.90;;;;;;5030985;28;20437;-75
2023/09/19 04:49:59;;;;;;;7.30;2.37;;;19.30;99.90;;;;;;5015435;28;20764;-75
2023/09/19 04:52:24;;;;;;;5.83;3.03;;;19.20;99.90;;;;;;5017389;28;20333;-77
2023/09/19 04:54:50;;;;;;;6.27;2.63;;;19.20;99.90;;;;;;5023981;28;21045;-76
2023/09/19 04:57:16;;;;;;;3.33;2.23;;;19.20;99.90;;;;;;5021209;28;20225;-77
2023/09/19 04:59:41;;;;;;;3.13;2.40;;;19.20;99.90;;;;;;5005801;28;20207;-75
2023/09/19 05:02:10;;;;;;;5.70;3.10;;;19.20;99.90;;;;;;5022095;28;20201;-74
2023/09/19 05:04:35;;;;;;;3.13;2.20;;;19.10;99.90;;;;;;5012878;28;20648;-74
2023/09/19 05:07:03;;;;;;;5.17;3.30;;;19.10;99.90;;;;;;5018097;28;20452;-74
2023/09/19 05:09:29;;;;;;;5.77;3.23;;;19.20;99.90;;;;;;5021593;28;20190;-76
2023/09/19 05:11:54;;;;;;;2.90;2.40;;;19.10;99.90;;;;;;5023931;28;20439;-75
2023/09/19 05:14:20;;;;;;;4.27;2.73;;;19.20;99.90;;;;;;5016083;28;20832;-76
2023/09/19 05:16:46;;;;;;;4.90;2.13;;;19.20;99.90;;;;;;5017453;28;20227;-75
2023/09/19 05:19:12;;;;;;;4.10;2.43;;;19.20;99.90;;;;;;5018997;28;20659;-76
2023/09/19 05:21:38;;;;;;;4.27;2.73;;;19.20;99.90;;;;;;5021303;28;20541;-75
2023/09/19 05:24:08;;;;;;;4.50;2.90;;;19.20;99.90;;;;;;5015045;28;20251;-75
2023/09/19 05:26:34;;;;;;;3.50;2.33;;;19.10;99.90;;;;;;4999297;28;20439;-73
2023/09/19 05:29:01;;;;;;;5.17;2.83;;;19.10;99.90;;;;;;5020581;28;20504;-74
2023/09/19 05:31:27;;;;;;;7.17;2.70;;;19.10;99.90;;;;;;5015289;28;20514;-73
2023/09/19 05:33:55;;;;;;;5.90;3.00;;;19.10;99.90;;;;;;5012964;28;20451;-74
2023/09/19 05:36:20;;;;;;;4.60;2.97;;;19.10;99.90;;;;;;5039095;28;20495;-76
2023/09/19 05:38:49;;;;;;;3.50;2.40;;;19.10;99.90;;;;;;5017197;28;20462;-73
2023/09/19 05:41:15;;;;;;;4.93;2.80;;;19.00;99.90;;;;;;5028787;28;20233;-72
2023/09/19 05:43:41;;;;;;;5.50;2.67;;;19.00;99.90;;;;;;5019601;28;20481;-72
2023/09/19 05:46:08;;;;;;;5.73;3.00;;;19.10;99.90;;;;;;5025202;28;20839;-74
2023/09/19 05:48:34;;;;;;;6.13;2.83;;;19.10;99.90;;;;;;5018813;28;20575;-74
2023/09/19 05:51:01;;;;;;;3.13;2.10;;;19.10;99.90;;;;;;5002437;28;20453;-74
2023/09/19 05:53:27;;;;;;;4.57;2.73;;;19.00;99.90;;;;;;5018012;28;20539;-74
2023/09/19 05:55:53;;;;;;;4.33;2.77;;;19.00;99.90;;;;;;5007241;28;20529;-73
2023/09/19 05:58:19;;;;;;;4.37;3.03;;;19.00;99.90;;;;;;5019935;28;20205;-73
2023/09/19 06:00:49;;;;;;;4.47;2.37;;;18.90;99.90;;;;;;5019911;28;21214;-73
2023/09/19 06:03:14;;;;;;;6.53;2.50;;;18.90;99.90;;;;;;5017467;28;20833;-73
2023/09/19 06:05:41;;;;;;;6.70;2.40;;;18.80;99.90;;;;;;5018751;28;20434;-75
2023/09/19 06:08:07;;;;;;;9.03;4.20;;;18.90;99.90;;;;;;5030179;28;20430;-73
2023/09/19 06:10:36;;;;;;;4.13;2.60;;;18.90;99.90;;;;;;5031760;28;20466;-73
2023/09/19 06:13:06;;;;;;;4.90;2.60;;;18.90;99.90;;;;;;5020827;28;20435;-73
2023/09/19 06:15:33;;;;;;;2.90;2.37;;;18.80;99.90;;;;;;5021203;28;20435;-73
2023/09/19 06:17:59;;;;;;;4.77;3.27;;;18.90;99.90;;;;;;5021698;28;20490;-73
2023/09/19 06:20:26;;;;;;;3.80;2.50;;;18.90;99.90;;;;;;5015503;28;20419;-72
2023/09/19 06:22:52;;;;;;;6.30;3.73;;;18.80;99.90;;;;;;5019827;28;20500;-73
2023/09/19 06:25:19;;;;;;;5.57;2.63;;;18.90;99.90;;;;;;5023653;28;20519;-73
2023/09/19 06:27:53;;;;;;;6.50;2.80;;;18.90;99.90;;;;;;5001238;28;20427;-73
2023/09/19 06:30:20;;;;;;;4.23;2.53;;;18.90;99.90;;;;;;5005524;28;20426;-73
2023/09/19 06:32:46;;;;;;;4.60;2.57;;;18.90;99.90;;;;;;5011723;28;20467;-73
2023/09/19 06:35:15;;;;;;;7.80;2.43;;;19.00;99.90;;;;;;5017265;28;20411;-73
2023/09/19 06:37:42;;;;;;;8.67;3.20;;;19.00;99.90;;;;;;5015846;28;20208;-72
2023/09/19 06:40:14;;;;;;;4.40;2.60;;;19.00;99.90;;;;;;5028213;28;20402;-74
2023/09/19 06:42:45;;;;;;;7.00;2.67;;;18.90;99.90;;;;;;5003004;28;20996;-74
2023/09/19 06:45:13;;;;;;;3.83;2.73;;;19.00;99.90;;;;;;5016523;28;20418;-73
2023/09/19 06:47:39;;;;;;;4.83;2.20;;;19.00;99.90;;;;;;5025302;28;20442;-73
2023/09/19 06:50:06;;;;;;;3.27;2.50;;;19.00;99.90;;;;;;5024012;28;20415;-73
2023/09/19 06:52:33;;;;;;;6.27;3.00;;;19.10;99.90;;;;;;5036868;28;20562;-73
2023/09/19 06:54:58;;;;;;;3.17;2.50;;;18.90;99.90;;;;;;5015587;28;21397;-72
2023/09/19 06:57:24;;;;;;;9.17;4.90;;;18.90;99.90;;;;;;5021433;28;20462;-73
2023/09/19 06:59:50;;;;;;;6.57;3.10;;;18.90;99.90;;;;;;5006588;28;20200;-73
2023/09/19 07:02:15;;;;;;;3.83;2.30;;;18.90;99.90;;;;;;5016008;28;20196;-78
2023/09/19 07:04:41;;;;;;;3.50;2.87;;;18.80;99.90;;;;;;5033200;28;20212;-77
2023/09/19 07:07:08;;;;;;;3.50;1.97;;;18.80;99.90;;;;;;5000353;28;20239;-75
2023/09/19 07:09:34;;;;;;;7.53;3.00;;;18.80;99.90;;;;;;5016738;28;20192;-75
2023/09/19 07:12:00;;;;;;;7.87;2.60;;;18.80;99.90;;;;;;5017362;28;20888;-73
2023/09/19 07:14:27;;;;;;;9.10;2.70;;;18.80;99.90;;;;;;5012544;28;20185;-74
2023/09/19 07:16:52;;;;;;;3.17;2.20;;;18.80;99.90;;;;;;5017939;28;20264;-74
2023/09/19 07:19:18;;;;;;;6.97;2.30;;;18.80;99.90;;;;;;5020140;28;20559;-74
2023/09/19 07:21:43;;;;;;;6.20;2.60;;;18.80;99.90;;;;;;5014924;28;20235;-75
2023/09/19 07:24:09;;;;;;;4.87;2.43;;;18.70;99.90;;;;;;5021233;28;20173;-75
2023/09/19 07:26:35;;;;;;;4.47;2.70;;;18.70;99.90;;;;;;5002946;28;20187;-75
2023/09/19 07:29:03;;;;;;;6.03;2.40;;;18.70;99.90;;;;;;5016695;28;20189;-75
2023/09/19 07:31:29;;;;;;;4.10;2.40;;;18.80;99.90;;;;;;5021962;28;20185;-75
2023/09/19 07:33:55;;;;;;;7.20;2.77;;;18.80;99.90;;;;;;5016686;28;20490;-75
2023/09/19 07:36:20;;;;;;;4.30;2.47;;;18.80;99.90;;;;;;5020973;28;20435;-75
2023/09/19 07:38:48;;;;;;;5.10;2.43;;;18.80;99.90;;;;;;5019322;28;20231;-75
2023/09/19 07:41:13;;;;;;;4.80;3.20;;;18.80;99.90;;;;;;5021006;28;20180;-74
2023/09/19 07:43:40;;;;;;;7.43;2.40;;;18.90;99.90;;;;;;5018636;28;20545;-75
2023/09/19 07:46:11;;;;;;;4.03;2.27;;;19.00;99.90;;;;;;5002272;28;20672;-75
2023/09/19 07:48:38;;;;;;;6.33;2.70;;;18.90;99.90;;;;;;5017385;28;20531;-75
2023/09/19 07:51:06;;;;;;;5.07;2.50;;;19.00;99.90;;;;;;5021646;28;20511;-75
2023/09/19 07:53:34;;;;;;;6.93;2.80;;;19.10;99.90;;;;;;5003622;28;20452;-75
2023/09/19 07:56:07;;;;;;;6.03;2.60;;;19.20;99.90;;;;;;5016109;28;20420;-75
2023/09/19 07:58:34;;;;;;;5.17;2.37;;;19.20;99.90;;;;;;5013962;28;21033;-74
2023/09/19 08:01:04;;;;;;;2.77;2.10;;;19.20;99.90;;;;;;5017837;28;20469;-75
2023/09/19 08:03:30;;;;;;;4.50;2.63;;;19.10;99.90;;;;;;5001658;28;20530;-75
2023/09/19 08:06:03;;;;;;;4.83;2.77;;;19.10;99.90;;;;;;5005594;28;20434;-74
2023/09/19 08:08:28;;;;;;;6.17;3.37;;;19.20;99.90;;;;;;5018925;28;20431;-75
2023/09/19 08:10:56;;;;;;;5.30;2.97;;;19.10;99.90;;;;;;5018948;28;20508;-75
2023/09/19 08:13:22;;;;;;;5.93;2.90;;;19.20;99.90;;;;;;5010728;28;20846;-74
2023/09/19 08:15:48;;;;;;;4.73;2.10;;;19.30;99.90;;;;;;5014795;28;20938;-75
2023/09/19 08:18:15;;;;;;;3.53;2.03;;;19.30;99.90;;;;;;5014468;28;20475;-75
2023/09/19 08:20:46;;;;;;;7.80;2.07;;;19.30;99.90;;;;;;5022337;28;20703;-75
2023/09/19 08:23:11;;;;;;;4.50;2.70;;;19.20;99.90;;;;;;5020093;28;20458;-75
2023/09/19 08:25:38;;;;;;;2.57;2.03;;;19.30;99.90;;;;;;5017980;28;20554;-75
2023/09/19 08:28:08;;;;;;;2.43;1.80;;;19.40;99.90;;;;;;4997649;28;20186;-76
2023/09/19 08:30:34;;;;;;;3.70;2.07;;;19.50;99.90;;;;;;5015725;28;20427;-77
2023/09/19 08:33:00;;;;;;;5.10;2.57;;;19.50;99.90;;;;;;5011668;28;20574;-75
2023/09/19 08:35:30;;;;;;;3.37;2.00;;;19.50;99.90;;;;;;5021096;28;20488;-74
2023/09/19 08:37:56;;;;;;;5.70;2.10;;;19.50;99.90;;;;;;5014968;28;20472;-74
2023/09/19 08:40:22;;;;;;;2.93;2.03;;;19.50;99.90;;;;;;5020589;28;20504;-75
2023/09/19 08:42:53;;;;;;;5.13;1.80;;;19.50;99.90;;;;;;5019995;28;20467;-75
2023/09/19 08:45:20;;;;;;;3.03;1.77;;;19.50;99.90;;;;;;5015833;28;20181;-75
2023/09/19 08:48:02;;;;;;;3.10;1.80;;;19.60;99.90;;;;;;4998304;28;20431;-74
2023/09/19 08:50:29;;;;;;;6.03;2.40;;;19.60;99.90;;;;;;5013080;28;20966;-75
2023/09/19 08:53:00;;;;;;;4.83;2.30;;;19.80;99.90;;;;;;4998784;28;20825;-74
2023/09/19 08:55:29;;;;;;;3.90;1.90;;;19.80;99.90;;;;;;5016263;28;20428;-76
2023/09/19 08:58:06;;;;;;;6.07;2.00;;;19.80;99.90;;;;;;5018803;28;20423;-76
2023/09/19 09:00:34;;;;;;;5.77;2.10;;;19.90;99.90;;;;;;5019445;28;20439;-74
2023/09/19 09:03:02;;;;;;;3.53;2.10;;;19.90;99.90;;;;;;5016733;28;20447;-75
2023/09/19 09:05:29;;;;;;;2.97;1.73;;;19.90;99.90;;;;;;5016789;28;20439;-75
2023/09/19 09:07:56;;;;;;;3.70;2.03;;;19.90;99.90;;;;;;5012790;28;20430;-75
2023/09/19 09:10:22;;;;;;;2.83;2.00;;;19.90;99.90;;;;;;5016601;28;20438;-74
2023/09/19 09:12:54;;;;;;;4.00;2.20;;;19.90;99.90;;;;;;5035115;28;20477;-75
2023/09/19 09:15:23;;;;;;;5.27;2.30;;;20.00;99.90;;;;;;5020160;28;20941;-75
2023/09/19 09:17:53;;;;;;;4.37;2.43;;;20.10;99.90;;;;;;4994941;28;20489;-75
2023/09/19 09:20:19;;;;;;;3.03;1.90;;;20.20;99.90;;;;;;5004143;28;20433;-73
2023/09/19 09:22:58;;;;;;;3.30;1.83;;;20.10;99.90;;;;;;5011620;28;20536;-73
2023/09/19 09:25:48;;;;;;;4.90;2.07;;;20.20;99.90;;;;;;4997235;28;20523;-73
2023/09/19 09:28:19;;;;;;;3.50;2.10;;;20.20;99.90;;;;;;5026980;28;20430;-73
2023/09/19 09:30:46;;;;;;;4.07;2.20;;;20.30;99.90;;;;;;5019489;28;21051;-72
2023/09/19 09:33:13;;;;;;;5.73;2.90;;;20.40;99.90;;;;;;5023052;28;20504;-73
2023/09/19 09:35:52;;;;;;;4.30;1.80;;;20.40;99.90;;;;;;5000108;28;20427;-73
2023/09/19 09:38:43;;;;;;;7.57;2.30;;;20.30;99.90;;;;;;5017462;28;20968;-73
2023/09/19 09:41:09;;;;;;;3.30;2.17;;;20.30;99.90;;;;;;5023387;28;20445;-73
2023/09/19 09:43:40;;;;;;;5.93;2.20;;;20.30;99.90;;;;;;4998341;28;20447;-73
2023/09/19 09:49:19;;;;;;;3.77;2.40;;;20.30;99.90;;;;;;4998366;28;20446;-73
2023/09/19 09:52:24;;;;;;;3.53;2.13;;;20.40;99.90;;;;;;5020717;28;20987;-73
2023/09/19 09:55:08;;;;;;;5.20;2.10;;;20.60;99.90;;;;;;5018389;28;20484;-74
2023/09/19 09:57:34;;;;;;;2.67;2.00;;;20.60;99.90;;;;;;5026126;28;20986;-73
2023/09/19 10:02:42;;;;;;;4.90;2.17;;;20.60;99.90;;;;;;5020471;28;20212;-75
2023/09/19 10:05:43;;;;;;;3.67;2.40;;;20.60;99.90;;;;;;5037014;28;20531;-75
2023/09/19 10:08:19;;;;;;;5.17;2.87;;;20.70;99.90;;;;;;5015794;28;20853;-76
2023/09/19 10:11:06;;;;;;;5.10;2.10;;;20.80;99.90;;;;;;5031608;28;20864;-75
2023/09/19 10:13:37;;;;;;;3.30;2.10;;;21.00;99.90;;;;;;5024960;28;20443;-75
2023/09/19 10:16:10;;;;;;;5.43;3.20;;;21.10;99.90;;;;;;5003605;28;20470;-76
2023/09/19 10:18:38;;;;;;;5.00;3.53;;;21.10;99.90;;;;;;5022183;28;20462;-75
2023/09/19 10:21:06;;;;;;;2.90;2.27;;;21.20;99.90;;;;;;5018252;28;20439;-76
2023/09/19 10:23:34;;;;;;;5.33;3.57;;;21.20;99.90;;;;;;5025005;28;20458;-77
2023/09/19 10:26:01;;;;;;;6.00;3.40;;;21.30;99.90;;;;;;5033544;28;20449;-75
2023/09/19 10:28:30;;;;;;;6.00;2.30;;;21.50;99.90;;;;;;5025975;28;20445;-75
2023/09/19 10:30:57;;;;;;;3.60;2.20;;;21.30;99.90;;;;;;5021605;28;20423;-75
2023/09/19 10:33:29;;;;;;;3.23;2.47;;;21.40;99.90;;;;;;5015693;28;20461;-71
2023/09/19 10:35:59;;;;;;;3.00;2.17;;;21.40;99.90;;;;;;4998718;28;20454;-72
2023/09/19 10:38:27;;;;;;;7.53;2.50;;;21.40;99.90;;;;;;5000290;28;20605;-71
2023/09/19 10:40:56;;;;;;;4.50;2.50;;;21.50;99.90;;;;;;5010807;28;20431;-72
2023/09/19 10:43:30;;;;;;;3.60;2.30;;;21.60;99.90;;;;;;4997634;28;20832;-72
2023/09/19 10:46:00;;;;;;;2.80;2.10;;;21.60;99.90;;;;;;4993692;28;22877;-72
2023/09/19 10:48:28;;;;;;;3.33;2.43;;;21.60;99.90;;;;;;4988105;28;20431;-72
2023/09/19 10:51:11;;;;;;;4.43;2.63;;;21.80;99.90;;;;;;5019035;28;20427;-72
2023/09/19 10:54:17;;;;;;;5.20;2.73;;;21.80;99.90;;;;;;5010132;28;20469;-73
2023/09/19 10:56:46;;;;;;;4.20;2.40;;;21.70;99.90;;;;;;4985361;28;20438;-72
2023/09/19 10:59:18;;;;;;;4.90;2.57;;;21.80;99.90;;;;;;5014684;28;20490;-71
2023/09/19 11:01:50;;;;;;;3.90;2.53;;;21.70;99.90;;;;;;5005138;28;20463;-72
2023/09/19 11:04:31;;;;;;;4.20;2.83;;;21.80;99.90;;;;;;5011169;28;20439;-73
2023/09/19 11:07:12;;;;;;;4.40;2.43;;;21.90;99.90;;;;;;5022334;28;20427;-74
2023/09/19 11:09:53;;;;;;;4.67;2.27;;;22.10;99.90;;;;;;5028753;28;20490;-74
2023/09/19 11:12:54;;;;;;;4.90;2.70;;;22.20;99.90;;;;;;5030097;28;20469;-74
2023/09/19 11:15:51;;;;;;;2.97;2.10;;;22.20;99.90;;;;;;5022302;28;20439;-73
2023/09/19 11:18:42;;;;;;;3.40;2.27;;;22.30;99.90;;;;;;5033877;28;20454;-73
2023/09/19 11:21:33;;;;;;;7.67;2.80;;;22.30;99.90;;;;;;5031118;28;20439;-73
2023/09/19 11:24:22;;;;;;;2.57;2.00;;;22.40;99.90;;;;;;5044540;28;20427;-72
2023/09/19 11:26:48;;;;;;;2.80;2.10;;;22.30;99.90;;;;;;5019162;28;20480;-73
2023/09/19 11:29:31;;;;;;;2.80;2.20;;;22.20;99.90;;;;;;5018063;28;20456;-72
2023/09/19 11:31:59;;;;;;;6.23;2.33;;;22.00;99.90;;;;;;5019221;28;20468;-73
2023/09/19 11:34:37;;;;;;;2.60;2.30;;;22.10;99.90;;;;;;5020989;28;20477;-72
2023/09/19 11:37:15;;;;;;;4.00;2.50;;;22.20;99.90;;;;;;4998860;28;20424;-72
2023/09/19 11:40:16;;;;;;;4.27;2.40;;;22.20;99.90;;;;;;5012190;28;21009;-73
2023/09/19 11:42:45;;;;;;;3.77;2.30;;;22.30;99.90;;;;;;5003549;28;20462;-71
2023/09/19 11:45:50;;;;;;;4.10;2.40;;;22.40;99.90;;;;;;5011001;28;20426;-73
2023/09/19 11:48:18;;;;;;;5.57;2.63;;;22.60;99.90;;;;;;4993741;28;20435;-72
2023/09/19 11:50:47;;;;;;;3.20;2.90;;;22.80;99.90;;;;;;5008925;28;20531;-75
2023/09/19 11:53:15;;;;;;;3.80;2.23;;;22.90;99.90;;;;;;5018211;28;20450;-73
2023/09/19 11:55:45;;;;;;;3.80;2.30;;;22.60;99.90;;;;;;4997328;28;20451;-72
2023/09/19 11:58:19;;;;;;;4.80;2.60;;;22.60;99.90;;;;;;5012322;28;20494;-73
2023/09/19 12:00:46;;;;;;;4.90;2.53;;;23.00;99.90;;;;;;5015775;28;20437;-72
2023/09/19 12:03:14;;;;;;;6.50;2.67;;;23.40;99.90;;;;;;5008681;28;20455;-72
2023/09/19 12:05:40;;;;;;;5.83;2.43;;;23.50;99.90;;;;;;4993188;28;20571;-72
2023/09/19 12:08:10;;;;;;;3.93;2.47;;;23.90;99.90;;;;;;5000560;28;20423;-72
2023/09/19 12:10:49;;;;;;;3.90;2.53;;;24.40;99.90;;;;;;5007245;28;20181;-73
2023/09/19 12:13:18;;;;;;;4.00;2.33;;;25.00;99.90;;;;;;5014082;28;20499;-72
2023/09/19 12:15:47;;;;;;;3.60;2.70;;;25.30;99.90;;;;;;5008092;28;20786;-73
2023/09/19 12:18:33;;;;;;;3.23;2.30;;;25.60;99.90;;;;;;5008858;28;20460;-72
2023/09/19 12:21:00;;;;;;;6.83;2.77;;;26.10;99.90;;;;;;5007313;28;20535;-72
2023/09/19 12:23:25;;;;;;;3.70;2.60;;;26.40;99.90;;;;;;4993861;28;20462;-73
2023/09/19 12:25:53;;;;;;;5.10;3.20;;;26.70;98.80;;;;;;5011191;28;20454;-73
2023/09/19 12:28:22;;;;;;;3.20;2.30;;;27.00;97.90;;;;;;5024516;28;20193;-73
2023/09/19 12:30:48;;;;;;;8.97;2.80;;;27.20;96.20;;;;;;5009318;28;20954;-74
2023/09/19 12:33:25;;;;;;;2.90;2.33;;;27.20;95.00;;;;;;5006766;28;20459;-74
2023/09/19 12:35:53;;;;;;;5.57;2.73;;;27.40;94.80;;;;;;5009561;28;20229;-74
2023/09/19 12:38:28;;;;;;;3.00;2.33;;;27.20;93.30;;;;;;5013202;28;20463;-73
2023/09/19 12:40:56;;;;;;;8.03;2.87;;;27.00;94.20;;;;;;5012411;28;21325;-75
2023/09/19 12:43:23;;;;;;;3.60;2.33;;;27.00;93.80;;;;;;5009432;28;20449;-74
2023/09/19 12:45:49;;;;;;;3.70;2.50;;;27.20;93.50;;;;;;5031924;28;20489;-75
2023/09/19 12:48:32;;;;;;;4.47;2.80;;;27.50;93.00;;;;;;5020294;28;20443;-75
2023/09/19 12:51:12;;;;;;;4.53;2.60;;;27.20;92.60;;;;;;4999415;28;20531;-75
2023/09/19 12:53:44;;;;;;;2.80;2.50;;;27.20;92.10;;;;;;5014768;28;20455;-75
2023/09/19 12:56:10;;;;;;;3.80;2.90;;;27.30;91.70;;;;;;5015565;28;20478;-75
2023/09/19 12:58:55;;;;;;;4.33;2.73;;;27.00;91.40;;;;;;5019567;28;21045;-75
2023/09/19 13:01:27;;;;;;;9.53;2.57;;;26.50;91.50;;;;;;5018267;28;20438;-75
2023/09/19 13:04:25;;;;;;;5.37;2.40;;;26.40;91.90;;;;;;5017803;28;20590;-75
2023/09/19 13:06:52;;;;;;;3.77;2.93;;;26.40;91.70;;;;;;5017523;28;20414;-74
2023/09/19 13:09:28;;;;;;;4.00;2.50;;;26.30;92.50;;;;;;5020323;28;20429;-76